sensor_id;sensor_type;location;lat;lon;timestamp;P1;durP1;ratioP1;P2;durP2;ratioP2
73428;SDS011;61643;49.564;17.412;2023-04-25T00:01:41;3.58;;;2.67;;
73428;SDS011;61643;49.564;17.412;2023-04-25T00:04:07;4.05;;;2.90;;
73428;SDS011;61643;49.564;17.412;2023-04-25T00:06:36;3.67;;;2.80;;
73428;SDS011;61643;49.564;17.412;2023-04-25T00:09:05;4.38;;;2.97;;
73428;SDS011;61643;49.564;17.412;2023-04-25T00:14:02;4.05;;;2.72;;
73428;SDS011;61643;49.564;17.412;2023-04-25T00:16:29;4.90;;;3.28;;
73428;SDS011;61643;49.564;17.412;2023-04-25T00:18:59;4.95;;;3.22;;
73428;SDS011;61643;49.564;17.412;2023-04-25T00:21:27;4.35;;;2.95;;
73428;SDS011;61643;49.564;17.412;2023-04-25T00:23:53;5.53;;;3.10;;
73428;SDS011;61643;49.564;17.412;2023-04-25T00:26:20;4.45;;;3.08;;
73428;SDS011;61643;49.564;17.412;2023-04-25T00:28:47;5.00;;;2.97;;
73428;SDS011;61643;49.564;17.412;2023-04-25T00:31:13;4.53;;;3.13;;
73428;SDS011;61643;49.564;17.412;2023-04-25T00:33:39;4.53;;;3.03;;
73428;SDS011;61643;49.564;17.412;2023-04-25T00:36:05;4.43;;;3.50;;
73428;SDS011;61643;49.564;17.412;2023-04-25T00:38:32;6.80;;;3.63;;
73428;SDS011;61643;49.564;17.412;2023-04-25T00:40:58;6.25;;;4.03;;
73428;SDS011;61643;49.564;17.412;2023-04-25T00:43:27;7.60;;;4.05;;
73428;SDS011;61643;49.564;17.412;2023-04-25T00:45:55;7.65;;;4.05;;
73428;SDS011;61643;49.564;17.412;2023-04-25T00:48:23;5.03;;;3.53;;
73428;SDS011;61643;49.564;17.412;2023-04-25T00:50:51;6.45;;;3.78;;
73428;SDS011;61643;49.564;17.412;2023-04-25T00:53:22;5.80;;;3.88;;
73428;SDS011;61643;49.564;17.412;2023-04-25T00:55:49;5.53;;;3.30;;
73428;SDS011;61643;49.564;17.412;2023-04-25T00:58:21;5.78;;;3.13;;
73428;SDS011;61643;49.564;17.412;2023-04-25T01:00:49;4.60;;;3.30;;
73428;SDS011;61643;49.564;17.412;2023-04-25T01:03:17;5.93;;;3.70;;
73428;SDS011;61643;49.564;17.412;2023-04-25T01:08:12;4.50;;;2.92;;
73428;SDS011;61643;49.564;17.412;2023-04-25T01:10:38;4.95;;;3.28;;
73428;SDS011;61643;49.564;17.412;2023-04-25T01:13:04;3.95;;;2.67;;
73428;SDS011;61643;49.564;17.412;2023-04-25T01:15:30;5.57;;;3.28;;
73428;SDS011;61643;49.564;17.412;2023-04-25T01:17:57;3.80;;;2.92;;
73428;SDS011;61643;49.564;17.412;2023-04-25T01:20:23;3.97;;;3.00;;
73428;SDS011;61643;49.564;17.412;2023-04-25T01:22:50;5.65;;;3.20;;
73428;SDS011;61643;49.564;17.412;2023-04-25T01:25:18;4.10;;;2.92;;
73428;SDS011;61643;49.564;17.412;2023-04-25T01:27:45;5.07;;;3.15;;
73428;SDS011;61643;49.564;17.412;2023-04-25T01:30:12;5.43;;;2.95;;
73428;SDS011;61643;49.564;17.412;2023-04-25T01:32:38;4.30;;;3.10;;
73428;SDS011;61643;49.564;17.412;2023-04-25T01:35:06;4.45;;;2.83;;
73428;SDS011;61643;49.564;17.412;2023-04-25T01:37:37;7.85;;;3.08;;
73428;SDS011;61643;49.564;17.412;2023-04-25T01:40:07;4.57;;;3.05;;
73428;SDS011;61643;49.564;17.412;2023-04-25T01:42:36;4.70;;;3.00;;
73428;SDS011;61643;49.564;17.412;2023-04-25T01:45:03;5.07;;;2.83;;
73428;SDS011;61643;49.564;17.412;2023-04-25T01:47:29;4.20;;;2.88;;
73428;SDS011;61643;49.564;17.412;2023-04-25T01:49:55;4.57;;;2.80;;
73428;SDS011;61643;49.564;17.412;2023-04-25T01:52:21;4.65;;;3.10;;
73428;SDS011;61643;49.564;17.412;2023-04-25T01:54:47;5.18;;;3.00;;
73428;SDS011;61643;49.564;17.412;2023-04-25T01:57:15;4.15;;;2.65;;
73428;SDS011;61643;49.564;17.412;2023-04-25T01:59:41;5.75;;;3.53;;
73428;SDS011;61643;49.564;17.412;2023-04-25T02:02:08;4.22;;;2.90;;
73428;SDS011;61643;49.564;17.412;2023-04-25T02:04:36;4.50;;;2.80;;
73428;SDS011;61643;49.564;17.412;2023-04-25T02:07:02;3.42;;;2.30;;
73428;SDS011;61643;49.564;17.412;2023-04-25T02:09:29;3.60;;;2.65;;
73428;SDS011;61643;49.564;17.412;2023-04-25T02:11:55;3.42;;;2.42;;
73428;SDS011;61643;49.564;17.412;2023-04-25T02:14:21;4.57;;;2.65;;
73428;SDS011;61643;49.564;17.412;2023-04-25T02:16:46;4.80;;;2.65;;
73428;SDS011;61643;49.564;17.412;2023-04-25T02:19:12;3.88;;;2.80;;
73428;SDS011;61643;49.564;17.412;2023-04-25T02:21:38;4.13;;;2.80;;
73428;SDS011;61643;49.564;17.412;2023-04-25T02:24:04;4.45;;;2.72;;
73428;SDS011;61643;49.564;17.412;2023-04-25T02:26:31;5.45;;;2.90;;
73428;SDS011;61643;49.564;17.412;2023-04-25T02:28:57;3.92;;;2.50;;
73428;SDS011;61643;49.564;17.412;2023-04-25T02:31:23;4.25;;;2.75;;
73428;SDS011;61643;49.564;17.412;2023-04-25T02:33:49;5.18;;;2.60;;
73428;SDS011;61643;49.564;17.412;2023-04-25T02:36:15;4.28;;;2.50;;
73428;SDS011;61643;49.564;17.412;2023-04-25T02:38:41;5.55;;;2.50;;
73428;SDS011;61643;49.564;17.412;2023-04-25T02:41:07;4.85;;;2.45;;
73428;SDS011;61643;49.564;17.412;2023-04-25T02:43:33;10.13;;;3.35;;
73428;SDS011;61643;49.564;17.412;2023-04-25T02:45:59;6.45;;;3.00;;
73428;SDS011;61643;49.564;17.412;2023-04-25T02:48:25;3.53;;;2.30;;
73428;SDS011;61643;49.564;17.412;2023-04-25T02:50:51;3.45;;;2.28;;
73428;SDS011;61643;49.564;17.412;2023-04-25T02:53:17;3.85;;;2.42;;
73428;SDS011;61643;49.564;17.412;2023-04-25T02:55:43;3.67;;;2.67;;
73428;SDS011;61643;49.564;17.412;2023-04-25T02:58:09;3.53;;;2.10;;
73428;SDS011;61643;49.564;17.412;2023-04-25T03:00:35;3.65;;;2.80;;
73428;SDS011;61643;49.564;17.412;2023-04-25T03:03:01;4.22;;;2.60;;
73428;SDS011;61643;49.564;17.412;2023-04-25T03:05:27;4.13;;;2.72;;
73428;SDS011;61643;49.564;17.412;2023-04-25T03:07:53;4.07;;;2.38;;
73428;SDS011;61643;49.564;17.412;2023-04-25T03:10:19;6.57;;;2.50;;
73428;SDS011;61643;49.564;17.412;2023-04-25T03:12:45;3.92;;;2.65;;
73428;SDS011;61643;49.564;17.412;2023-04-25T03:15:11;4.55;;;2.83;;
73428;SDS011;61643;49.564;17.412;2023-04-25T03:17:37;4.65;;;2.78;;
73428;SDS011;61643;49.564;17.412;2023-04-25T03:20:03;4.57;;;2.38;;
73428;SDS011;61643;49.564;17.412;2023-04-25T03:22:30;3.95;;;2.72;;
73428;SDS011;61643;49.564;17.412;2023-04-25T03:24:56;10.50;;;3.10;;
73428;SDS011;61643;49.564;17.412;2023-04-25T03:27:22;4.57;;;2.97;;
73428;SDS011;61643;49.564;17.412;2023-04-25T03:29:48;4.10;;;2.67;;
73428;SDS011;61643;49.564;17.412;2023-04-25T03:32:14;3.60;;;2.60;;
73428;SDS011;61643;49.564;17.412;2023-04-25T03:34:40;3.03;;;2.35;;
73428;SDS011;61643;49.564;17.412;2023-04-25T03:37:06;3.88;;;2.88;;
73428;SDS011;61643;49.564;17.412;2023-04-25T03:39:32;4.05;;;2.80;;
73428;SDS011;61643;49.564;17.412;2023-04-25T03:41:58;4.75;;;2.80;;
73428;SDS011;61643;49.564;17.412;2023-04-25T03:44:24;3.30;;;2.50;;
73428;SDS011;61643;49.564;17.412;2023-04-25T03:46:50;4.53;;;2.90;;
73428;SDS011;61643;49.564;17.412;2023-04-25T03:49:16;5.60;;;2.67;;
73428;SDS011;61643;49.564;17.412;2023-04-25T03:51:42;3.03;;;2.40;;
73428;SDS011;61643;49.564;17.412;2023-04-25T03:54:08;4.25;;;2.72;;
73428;SDS011;61643;49.564;17.412;2023-04-25T03:56:34;4.25;;;2.83;;
73428;SDS011;61643;49.564;17.412;2023-04-25T03:59:00;4.35;;;2.67;;
73428;SDS011;61643;49.564;17.412;2023-04-25T04:01:26;4.80;;;2.60;;
73428;SDS011;61643;49.564;17.412;2023-04-25T04:03:52;4.55;;;2.78;;
73428;SDS011;61643;49.564;17.412;2023-04-25T04:06:18;3.70;;;2.70;;
73428;SDS011;61643;49.564;17.412;2023-04-25T04:11:12;4.10;;;2.97;;
73428;SDS011;61643;49.564;17.412;2023-04-25T04:13:38;4.30;;;3.00;;
73428;SDS011;61643;49.564;17.412;2023-04-25T04:16:04;4.70;;;2.75;;
73428;SDS011;61643;49.564;17.412;2023-04-25T04:18:30;4.97;;;2.97;;
73428;SDS011;61643;49.564;17.412;2023-04-25T04:20:56;4.05;;;2.90;;
73428;SDS011;61643;49.564;17.412;2023-04-25T04:23:25;4.43;;;3.10;;
73428;SDS011;61643;49.564;17.412;2023-04-25T04:25:52;4.18;;;3.40;;
73428;SDS011;61643;49.564;17.412;2023-04-25T04:28:19;5.68;;;3.42;;
73428;SDS011;61643;49.564;17.412;2023-04-25T04:30:46;4.50;;;2.63;;
73428;SDS011;61643;49.564;17.412;2023-04-25T04:33:12;4.10;;;2.95;;
73428;SDS011;61643;49.564;17.412;2023-04-25T04:35:38;5.00;;;3.10;;
73428;SDS011;61643;49.564;17.412;2023-04-25T04:38:04;3.15;;;2.67;;
73428;SDS011;61643;49.564;17.412;2023-04-25T04:40:30;4.20;;;3.30;;
73428;SDS011;61643;49.564;17.412;2023-04-25T04:42:56;5.10;;;2.95;;
73428;SDS011;61643;49.564;17.412;2023-04-25T04:45:23;7.57;;;2.65;;
73428;SDS011;61643;49.564;17.412;2023-04-25T04:47:49;4.07;;;2.90;;
73428;SDS011;61643;49.564;17.412;2023-04-25T04:50:15;4.05;;;2.70;;
73428;SDS011;61643;49.564;17.412;2023-04-25T04:52:42;6.00;;;3.45;;
73428;SDS011;61643;49.564;17.412;2023-04-25T04:55:08;5.38;;;3.55;;
73428;SDS011;61643;49.564;17.412;2023-04-25T04:57:34;10.57;;;4.90;;
73428;SDS011;61643;49.564;17.412;2023-04-25T05:00:00;14.93;;;6.00;;
73428;SDS011;61643;49.564;17.412;2023-04-25T05:02:27;12.23;;;5.93;;
73428;SDS011;61643;49.564;17.412;2023-04-25T05:04:53;11.82;;;6.10;;
73428;SDS011;61643;49.564;17.412;2023-04-25T05:07:19;12.70;;;5.97;;
73428;SDS011;61643;49.564;17.412;2023-04-25T05:09:45;9.70;;;5.43;;
73428;SDS011;61643;49.564;17.412;2023-04-25T05:12:11;8.40;;;4.10;;
73428;SDS011;61643;49.564;17.412;2023-04-25T05:14:37;4.82;;;3.15;;
73428;SDS011;61643;49.564;17.412;2023-04-25T05:17:03;4.13;;;2.53;;
73428;SDS011;61643;49.564;17.412;2023-04-25T05:19:32;4.60;;;3.45;;
73428;SDS011;61643;49.564;17.412;2023-04-25T05:21:58;4.10;;;2.72;;
73428;SDS011;61643;49.564;17.412;2023-04-25T05:24:24;5.22;;;2.88;;
73428;SDS011;61643;49.564;17.412;2023-04-25T05:26:50;5.00;;;3.00;;
73428;SDS011;61643;49.564;17.412;2023-04-25T05:29:16;6.80;;;2.95;;
73428;SDS011;61643;49.564;17.412;2023-04-25T05:31:42;4.88;;;3.10;;
73428;SDS011;61643;49.564;17.412;2023-04-25T05:34:08;5.47;;;3.03;;
73428;SDS011;61643;49.564;17.412;2023-04-25T05:36:33;4.13;;;2.78;;
73428;SDS011;61643;49.564;17.412;2023-04-25T05:39:00;4.75;;;3.00;;
73428;SDS011;61643;49.564;17.412;2023-04-25T05:41:26;6.10;;;3.20;;
73428;SDS011;61643;49.564;17.412;2023-04-25T05:43:52;4.80;;;3.03;;
73428;SDS011;61643;49.564;17.412;2023-04-25T05:46:18;10.48;;;5.28;;
73428;SDS011;61643;49.564;17.412;2023-04-25T05:48:44;10.23;;;5.07;;
73428;SDS011;61643;49.564;17.412;2023-04-25T05:51:10;14.82;;;6.70;;
73428;SDS011;61643;49.564;17.412;2023-04-25T05:53:35;11.15;;;4.85;;
73428;SDS011;61643;49.564;17.412;2023-04-25T05:56:01;5.50;;;3.42;;
73428;SDS011;61643;49.564;17.412;2023-04-25T05:58:28;6.65;;;4.13;;
73428;SDS011;61643;49.564;17.412;2023-04-25T06:00:54;6.20;;;3.95;;
73428;SDS011;61643;49.564;17.412;2023-04-25T06:03:20;5.90;;;3.58;;
73428;SDS011;61643;49.564;17.412;2023-04-25T06:05:46;5.55;;;3.15;;
73428;SDS011;61643;49.564;17.412;2023-04-25T06:08:12;6.68;;;3.63;;
73428;SDS011;61643;49.564;17.412;2023-04-25T06:10:38;5.28;;;3.35;;
73428;SDS011;61643;49.564;17.412;2023-04-25T06:13:04;5.70;;;3.35;;
73428;SDS011;61643;49.564;17.412;2023-04-25T06:15:31;8.27;;;3.58;;
73428;SDS011;61643;49.564;17.412;2023-04-25T06:17:58;5.60;;;3.55;;
73428;SDS011;61643;49.564;17.412;2023-04-25T06:20:24;4.60;;;3.20;;
73428;SDS011;61643;49.564;17.412;2023-04-25T06:22:50;5.30;;;3.28;;
73428;SDS011;61643;49.564;17.412;2023-04-25T06:25:17;5.60;;;3.50;;
73428;SDS011;61643;49.564;17.412;2023-04-25T06:27:43;5.70;;;3.47;;
73428;SDS011;61643;49.564;17.412;2023-04-25T06:30:09;6.75;;;3.45;;
73428;SDS011;61643;49.564;17.412;2023-04-25T06:32:38;4.60;;;3.10;;
73428;SDS011;61643;49.564;17.412;2023-04-25T06:35:04;5.40;;;3.35;;
73428;SDS011;61643;49.564;17.412;2023-04-25T06:37:31;5.95;;;3.50;;
73428;SDS011;61643;49.564;17.412;2023-04-25T06:39:57;4.47;;;3.17;;
73428;SDS011;61643;49.564;17.412;2023-04-25T06:42:24;7.65;;;3.47;;
73428;SDS011;61643;49.564;17.412;2023-04-25T06:44:50;4.97;;;3.33;;
73428;SDS011;61643;49.564;17.412;2023-04-25T06:47:16;6.95;;;3.60;;
73428;SDS011;61643;49.564;17.412;2023-04-25T06:49:42;5.65;;;3.70;;
73428;SDS011;61643;49.564;17.412;2023-04-25T06:52:07;5.57;;;3.50;;
73428;SDS011;61643;49.564;17.412;2023-04-25T06:54:34;6.25;;;3.67;;
73428;SDS011;61643;49.564;17.412;2023-04-25T06:57:00;6.05;;;4.00;;
73428;SDS011;61643;49.564;17.412;2023-04-25T06:59:26;5.80;;;2.92;;
73428;SDS011;61643;49.564;17.412;2023-04-25T07:01:52;4.65;;;3.40;;
73428;SDS011;61643;49.564;17.412;2023-04-25T07:04:18;6.10;;;3.53;;
73428;SDS011;61643;49.564;17.412;2023-04-25T07:06:44;4.85;;;3.42;;
73428;SDS011;61643;49.564;17.412;2023-04-25T07:11:38;5.50;;;3.65;;
73428;SDS011;61643;49.564;17.412;2023-04-25T07:14:04;6.03;;;3.45;;
73428;SDS011;61643;49.564;17.412;2023-04-25T07:16:30;4.95;;;3.33;;
73428;SDS011;61643;49.564;17.412;2023-04-25T07:18:56;5.78;;;4.03;;
73428;SDS011;61643;49.564;17.412;2023-04-25T07:21:22;6.05;;;3.95;;
73428;SDS011;61643;49.564;17.412;2023-04-25T07:23:48;6.97;;;4.10;;
73428;SDS011;61643;49.564;17.412;2023-04-25T07:26:14;6.00;;;4.38;;
73428;SDS011;61643;49.564;17.412;2023-04-25T07:28:40;12.43;;;6.20;;
73428;SDS011;61643;49.564;17.412;2023-04-25T07:31:06;7.53;;;4.13;;
73428;SDS011;61643;49.564;17.412;2023-04-25T07:33:32;5.43;;;4.25;;
73428;SDS011;61643;49.564;17.412;2023-04-25T07:35:59;5.80;;;4.40;;
73428;SDS011;61643;49.564;17.412;2023-04-25T07:38:25;6.63;;;4.28;;
73428;SDS011;61643;49.564;17.412;2023-04-25T07:40:51;6.70;;;4.05;;
73428;SDS011;61643;49.564;17.412;2023-04-25T07:43:17;9.00;;;5.10;;
73428;SDS011;61643;49.564;17.412;2023-04-25T07:45:43;8.85;;;5.50;;
73428;SDS011;61643;49.564;17.412;2023-04-25T07:48:10;6.85;;;4.03;;
73428;SDS011;61643;49.564;17.412;2023-04-25T07:50:36;6.75;;;4.95;;
73428;SDS011;61643;49.564;17.412;2023-04-25T07:53:02;5.90;;;4.20;;
73428;SDS011;61643;49.564;17.412;2023-04-25T07:55:28;5.88;;;4.10;;
73428;SDS011;61643;49.564;17.412;2023-04-25T07:57:54;8.48;;;4.68;;
73428;SDS011;61643;49.564;17.412;2023-04-25T08:00:20;7.20;;;4.28;;
73428;SDS011;61643;49.564;17.412;2023-04-25T08:02:46;7.43;;;4.20;;
73428;SDS011;61643;49.564;17.412;2023-04-25T08:05:12;8.27;;;3.83;;
73428;SDS011;61643;49.564;17.412;2023-04-25T08:07:40;5.88;;;3.90;;
73428;SDS011;61643;49.564;17.412;2023-04-25T08:10:07;5.93;;;4.25;;
73428;SDS011;61643;49.564;17.412;2023-04-25T08:12:33;6.13;;;3.83;;
73428;SDS011;61643;49.564;17.412;2023-04-25T08:14:59;5.70;;;3.83;;
73428;SDS011;61643;49.564;17.412;2023-04-25T08:17:25;6.32;;;4.05;;
73428;SDS011;61643;49.564;17.412;2023-04-25T08:19:51;5.22;;;4.03;;
73428;SDS011;61643;49.564;17.412;2023-04-25T08:22:17;5.95;;;3.83;;
73428;SDS011;61643;49.564;17.412;2023-04-25T08:24:43;5.60;;;3.85;;
73428;SDS011;61643;49.564;17.412;2023-04-25T08:27:09;5.30;;;3.67;;
73428;SDS011;61643;49.564;17.412;2023-04-25T08:29:36;5.60;;;4.00;;
73428;SDS011;61643;49.564;17.412;2023-04-25T08:32:02;5.88;;;3.92;;
73428;SDS011;61643;49.564;17.412;2023-04-25T08:34:28;5.72;;;3.80;;
73428;SDS011;61643;49.564;17.412;2023-04-25T08:36:54;5.50;;;3.53;;
73428;SDS011;61643;49.564;17.412;2023-04-25T08:39:20;4.65;;;3.60;;
73428;SDS011;61643;49.564;17.412;2023-04-25T08:41:46;4.85;;;3.40;;
73428;SDS011;61643;49.564;17.412;2023-04-25T08:44:13;5.13;;;3.50;;
73428;SDS011;61643;49.564;17.412;2023-04-25T08:46:40;5.63;;;3.08;;
73428;SDS011;61643;49.564;17.412;2023-04-25T08:49:06;4.47;;;3.40;;
73428;SDS011;61643;49.564;17.412;2023-04-25T08:51:44;5.70;;;3.80;;
73428;SDS011;61643;49.564;17.412;2023-04-25T08:54:16;6.25;;;3.78;;
73428;SDS011;61643;49.564;17.412;2023-04-25T08:56:44;6.40;;;3.50;;
73428;SDS011;61643;49.564;17.412;2023-04-25T08:59:13;5.07;;;3.30;;
73428;SDS011;61643;49.564;17.412;2023-04-25T09:01:39;4.43;;;2.95;;
73428;SDS011;61643;49.564;17.412;2023-04-25T09:04:05;3.88;;;2.50;;
73428;SDS011;61643;49.564;17.412;2023-04-25T09:06:32;5.55;;;2.78;;
73428;SDS011;61643;49.564;17.412;2023-04-25T09:09:03;4.10;;;3.05;;
73428;SDS011;61643;49.564;17.412;2023-04-25T09:11:31;4.65;;;2.80;;
73428;SDS011;61643;49.564;17.412;2023-04-25T09:14:13;3.55;;;2.50;;
73428;SDS011;61643;49.564;17.412;2023-04-25T09:17:02;3.10;;;2.38;;
73428;SDS011;61643;49.564;17.412;2023-04-25T09:19:29;3.60;;;2.58;;
73428;SDS011;61643;49.564;17.412;2023-04-25T09:22:01;5.60;;;2.80;;
73428;SDS011;61643;49.564;17.412;2023-04-25T09:24:32;3.78;;;2.50;;
73428;SDS011;61643;49.564;17.412;2023-04-25T09:27:02;4.93;;;2.42;;
73428;SDS011;61643;49.564;17.412;2023-04-25T09:29:33;4.70;;;2.85;;
73428;SDS011;61643;49.564;17.412;2023-04-25T09:32:20;7.95;;;3.03;;
73428;SDS011;61643;49.564;17.412;2023-04-25T09:34:50;5.03;;;3.03;;
73428;SDS011;61643;49.564;17.412;2023-04-25T09:37:21;4.03;;;3.00;;
73428;SDS011;61643;49.564;17.412;2023-04-25T09:39:49;4.32;;;3.00;;
73428;SDS011;61643;49.564;17.412;2023-04-25T09:42:23;6.75;;;3.28;;
73428;SDS011;61643;49.564;17.412;2023-04-25T09:44:53;5.82;;;3.40;;
73428;SDS011;61643;49.564;17.412;2023-04-25T09:47:22;4.72;;;3.05;;
73428;SDS011;61643;49.564;17.412;2023-04-25T09:49:50;5.38;;;3.42;;
73428;SDS011;61643;49.564;17.412;2023-04-25T09:52:17;3.35;;;2.92;;
73428;SDS011;61643;49.564;17.412;2023-04-25T09:54:45;7.05;;;3.78;;
73428;SDS011;61643;49.564;17.412;2023-04-25T09:57:15;6.60;;;3.60;;
73428;SDS011;61643;49.564;17.412;2023-04-25T09:59:46;4.15;;;3.20;;
73428;SDS011;61643;49.564;17.412;2023-04-25T10:02:24;4.93;;;3.05;;
73428;SDS011;61643;49.564;17.412;2023-04-25T10:04:51;6.10;;;3.28;;
73428;SDS011;61643;49.564;17.412;2023-04-25T10:07:20;6.15;;;3.58;;
73428;SDS011;61643;49.564;17.412;2023-04-25T10:09:54;4.55;;;2.90;;
73428;SDS011;61643;49.564;17.412;2023-04-25T10:12:26;6.78;;;2.80;;
73428;SDS011;61643;49.564;17.412;2023-04-25T10:14:52;3.30;;;2.53;;
73428;SDS011;61643;49.564;17.412;2023-04-25T10:17:18;4.40;;;2.72;;
73428;SDS011;61643;49.564;17.412;2023-04-25T10:19:46;4.35;;;2.63;;
73428;SDS011;61643;49.564;17.412;2023-04-25T10:22:17;3.03;;;2.60;;
73428;SDS011;61643;49.564;17.412;2023-04-25T10:24:49;3.92;;;1.80;;
73428;SDS011;61643;49.564;17.412;2023-04-25T10:27:16;4.80;;;2.03;;
73428;SDS011;61643;49.564;17.412;2023-04-25T10:29:42;3.88;;;1.80;;
73428;SDS011;61643;49.564;17.412;2023-04-25T10:32:09;1.95;;;1.70;;
73428;SDS011;61643;49.564;17.412;2023-04-25T10:37:08;2.83;;;2.22;;
73428;SDS011;61643;49.564;17.412;2023-04-25T10:39:35;4.45;;;2.60;;
73428;SDS011;61643;49.564;17.412;2023-04-25T10:42:03;3.05;;;2.22;;
73428;SDS011;61643;49.564;17.412;2023-04-25T10:44:30;6.53;;;2.70;;
73428;SDS011;61643;49.564;17.412;2023-04-25T10:46:56;4.45;;;2.47;;
73428;SDS011;61643;49.564;17.412;2023-04-25T10:49:42;3.20;;;2.58;;
73428;SDS011;61643;49.564;17.412;2023-04-25T10:54:42;4.28;;;2.80;;
73428;SDS011;61643;49.564;17.412;2023-04-25T10:57:24;3.13;;;2.35;;
73428;SDS011;61643;49.564;17.412;2023-04-25T11:00:09;5.20;;;3.03;;
73428;SDS011;61643;49.564;17.412;2023-04-25T11:02:41;4.28;;;2.60;;
73428;SDS011;61643;49.564;17.412;2023-04-25T11:05:10;3.80;;;2.60;;
73428;SDS011;61643;49.564;17.412;2023-04-25T11:07:45;3.97;;;2.80;;
73428;SDS011;61643;49.564;17.412;2023-04-25T11:10:18;3.33;;;2.60;;
73428;SDS011;61643;49.564;17.412;2023-04-25T11:12:46;3.90;;;2.72;;
73428;SDS011;61643;49.564;17.412;2023-04-25T11:15:13;5.65;;;2.78;;
73428;SDS011;61643;49.564;17.412;2023-04-25T11:17:39;3.25;;;2.67;;
73428;SDS011;61643;49.564;17.412;2023-04-25T11:20:06;3.40;;;2.80;;
73428;SDS011;61643;49.564;17.412;2023-04-25T11:22:38;4.18;;;2.97;;
73428;SDS011;61643;49.564;17.412;2023-04-25T11:25:10;5.40;;;3.70;;
73428;SDS011;61643;49.564;17.412;2023-04-25T11:27:37;3.63;;;3.03;;
73428;SDS011;61643;49.564;17.412;2023-04-25T11:30:12;4.35;;;3.15;;
73428;SDS011;61643;49.564;17.412;2023-04-25T11:32:40;5.63;;;3.45;;
73428;SDS011;61643;49.564;17.412;2023-04-25T11:35:07;3.45;;;2.33;;
73428;SDS011;61643;49.564;17.412;2023-04-25T11:37:35;3.13;;;2.15;;
73428;SDS011;61643;49.564;17.412;2023-04-25T11:40:04;4.15;;;3.03;;
73428;SDS011;61643;49.564;17.412;2023-04-25T11:42:32;3.17;;;2.28;;
73428;SDS011;61643;49.564;17.412;2023-04-25T11:45:01;2.17;;;1.85;;
73428;SDS011;61643;49.564;17.412;2023-04-25T11:47:32;2.50;;;2.20;;
73428;SDS011;61643;49.564;17.412;2023-04-25T11:49:59;3.00;;;2.00;;
73428;SDS011;61643;49.564;17.412;2023-04-25T11:52:36;2.22;;;1.63;;
73428;SDS011;61643;49.564;17.412;2023-04-25T11:55:09;3.95;;;2.70;;
73428;SDS011;61643;49.564;17.412;2023-04-25T11:57:38;4.88;;;2.70;;
73428;SDS011;61643;49.564;17.412;2023-04-25T12:00:15;7.22;;;3.00;;
73428;SDS011;61643;49.564;17.412;2023-04-25T12:02:44;6.13;;;2.75;;
73428;SDS011;61643;49.564;17.412;2023-04-25T12:05:17;3.63;;;2.30;;
73428;SDS011;61643;49.564;17.412;2023-04-25T12:07:43;3.78;;;2.03;;
73428;SDS011;61643;49.564;17.412;2023-04-25T12:10:11;2.42;;;2.05;;
73428;SDS011;61643;49.564;17.412;2023-04-25T12:12:42;3.15;;;1.80;;
73428;SDS011;61643;49.564;17.412;2023-04-25T12:15:25;3.60;;;1.70;;
73428;SDS011;61643;49.564;17.412;2023-04-25T12:17:52;3.15;;;1.90;;
73428;SDS011;61643;49.564;17.412;2023-04-25T12:20:20;2.78;;;2.00;;
73428;SDS011;61643;49.564;17.412;2023-04-25T12:22:49;3.58;;;1.98;;
73428;SDS011;61643;49.564;17.412;2023-04-25T12:28:20;2.55;;;1.80;;
73428;SDS011;61643;49.564;17.412;2023-04-25T12:33:28;2.70;;;1.65;;
73428;SDS011;61643;49.564;17.412;2023-04-25T12:35:55;4.03;;;1.73;;
73428;SDS011;61643;49.564;17.412;2023-04-25T12:40:53;2.08;;;1.60;;
73428;SDS011;61643;49.564;17.412;2023-04-25T12:43:19;1.40;;;1.30;;
73428;SDS011;61643;49.564;17.412;2023-04-25T12:45:50;2.72;;;1.40;;
73428;SDS011;61643;49.564;17.412;2023-04-25T12:48:17;2.10;;;1.50;;
73428;SDS011;61643;49.564;17.412;2023-04-25T12:50:43;1.52;;;1.35;;
73428;SDS011;61643;49.564;17.412;2023-04-25T12:53:09;3.92;;;1.40;;
73428;SDS011;61643;49.564;17.412;2023-04-25T12:55:37;4.43;;;1.73;;
73428;SDS011;61643;49.564;17.412;2023-04-25T12:58:03;2.28;;;1.50;;
73428;SDS011;61643;49.564;17.412;2023-04-25T13:00:29;1.45;;;1.30;;
73428;SDS011;61643;49.564;17.412;2023-04-25T13:02:56;2.33;;;1.50;;
73428;SDS011;61643;49.564;17.412;2023-04-25T13:05:22;2.40;;;1.40;;
73428;SDS011;61643;49.564;17.412;2023-04-25T13:07:48;1.52;;;1.42;;
73428;SDS011;61643;49.564;17.412;2023-04-25T13:10:14;1.73;;;1.50;;
73428;SDS011;61643;49.564;17.412;2023-04-25T13:12:41;2.15;;;1.50;;
73428;SDS011;61643;49.564;17.412;2023-04-25T13:15:07;1.77;;;1.48;;
73428;SDS011;61643;49.564;17.412;2023-04-25T13:17:34;1.95;;;1.67;;
73428;SDS011;61643;49.564;17.412;2023-04-25T13:20:00;2.13;;;1.60;;
73428;SDS011;61643;49.564;17.412;2023-04-25T13:22:26;3.08;;;1.70;;
73428;SDS011;61643;49.564;17.412;2023-04-25T13:24:52;1.45;;;1.35;;
73428;SDS011;61643;49.564;17.412;2023-04-25T13:27:18;2.08;;;1.65;;
73428;SDS011;61643;49.564;17.412;2023-04-25T13:29:44;2.75;;;1.50;;
73428;SDS011;61643;49.564;17.412;2023-04-25T13:32:10;2.15;;;1.75;;
73428;SDS011;61643;49.564;17.412;2023-04-25T13:34:36;1.85;;;1.67;;
73428;SDS011;61643;49.564;17.412;2023-04-25T13:37:02;1.98;;;1.73;;
73428;SDS011;61643;49.564;17.412;2023-04-25T13:39:28;3.08;;;1.70;;
73428;SDS011;61643;49.564;17.412;2023-04-25T13:41:54;1.63;;;1.42;;
73428;SDS011;61643;49.564;17.412;2023-04-25T13:44:21;2.42;;;1.75;;
73428;SDS011;61643;49.564;17.412;2023-04-25T13:46:47;2.38;;;1.77;;
73428;SDS011;61643;49.564;17.412;2023-04-25T13:49:13;1.92;;;1.50;;
73428;SDS011;61643;49.564;17.412;2023-04-25T13:51:39;2.78;;;1.33;;
73428;SDS011;61643;49.564;17.412;2023-04-25T13:54:06;1.92;;;1.48;;
73428;SDS011;61643;49.564;17.412;2023-04-25T13:56:32;1.50;;;1.33;;
73428;SDS011;61643;49.564;17.412;2023-04-25T13:58:58;1.38;;;1.25;;
73428;SDS011;61643;49.564;17.412;2023-04-25T14:01:24;2.40;;;1.45;;
73428;SDS011;61643;49.564;17.412;2023-04-25T14:03:50;1.77;;;1.58;;
73428;SDS011;61643;49.564;17.412;2023-04-25T14:06:16;2.35;;;1.50;;
73428;SDS011;61643;49.564;17.412;2023-04-25T14:08:48;1.73;;;1.40;;
73428;SDS011;61643;49.564;17.412;2023-04-25T14:11:17;2.28;;;1.58;;
73428;SDS011;61643;49.564;17.412;2023-04-25T14:13:44;1.58;;;1.45;;
73428;SDS011;61643;49.564;17.412;2023-04-25T14:16:10;1.30;;;1.20;;
73428;SDS011;61643;49.564;17.412;2023-04-25T14:18:36;1.75;;;1.20;;
73428;SDS011;61643;49.564;17.412;2023-04-25T14:21:02;1.85;;;1.45;;
73428;SDS011;61643;49.564;17.412;2023-04-25T14:23:28;1.98;;;1.30;;
73428;SDS011;61643;49.564;17.412;2023-04-25T14:25:54;1.10;;;0.82;;
73428;SDS011;61643;49.564;17.412;2023-04-25T14:28:20;0.80;;;0.80;;
73428;SDS011;61643;49.564;17.412;2023-04-25T14:30:46;0.90;;;0.88;;
73428;SDS011;61643;49.564;17.412;2023-04-25T14:33:12;1.10;;;1.00;;
73428;SDS011;61643;49.564;17.412;2023-04-25T14:35:39;1.25;;;1.00;;
73428;SDS011;61643;49.564;17.412;2023-04-25T14:38:05;2.55;;;1.00;;
73428;SDS011;61643;49.564;17.412;2023-04-25T14:40:31;1.30;;;1.10;;
73428;SDS011;61643;49.564;17.412;2023-04-25T14:42:57;2.55;;;0.90;;
73428;SDS011;61643;49.564;17.412;2023-04-25T14:45:23;1.20;;;1.10;;
73428;SDS011;61643;49.564;17.412;2023-04-25T14:47:49;1.55;;;1.10;;
73428;SDS011;61643;49.564;17.412;2023-04-25T14:50:15;2.08;;;1.13;;
73428;SDS011;61643;49.564;17.412;2023-04-25T14:52:41;1.45;;;1.00;;
73428;SDS011;61643;49.564;17.412;2023-04-25T14:55:07;2.15;;;1.40;;
73428;SDS011;61643;49.564;17.412;2023-04-25T14:57:33;2.95;;;1.90;;